sensor_id;sensor_type;location;lat;lon;timestamp;P1;durP1;ratioP1;P2;durP2;ratioP2
13590;SDS011;6866;50.778;7.206;2023-05-10T00:01:04;3.05;;;1.67;;
13590;SDS011;6866;50.778;7.206;2023-05-10T00:03:29;4.10;;;1.63;;
13590;SDS011;6866;50.778;7.206;2023-05-10T00:05:55;4.10;;;2.30;;
13590;SDS011;6866;50.778;7.206;2023-05-10T00:08:21;4.15;;;2.00;;
13590;SDS011;6866;50.778;7.206;2023-05-10T00:10:47;3.50;;;1.90;;
13590;SDS011;6866;50.778;7.206;2023-05-10T00:13:12;3.20;;;1.83;;
13590;SDS011;6866;50.778;7.206;2023-05-10T00:15:38;4.55;;;1.88;;
13590;SDS011;6866;50.778;7.206;2023-05-10T00:18:04;4.03;;;1.90;;
13590;SDS011;6866;50.778;7.206;2023-05-10T00:20:29;3.40;;;2.17;;
13590;SDS011;6866;50.778;7.206;2023-05-10T00:22:55;4.65;;;2.20;;
13590;SDS011;6866;50.778;7.206;2023-05-10T00:25:20;4.07;;;1.95;;
13590;SDS011;6866;50.778;7.206;2023-05-10T00:27:46;6.53;;;2.20;;
13590;SDS011;6866;50.778;7.206;2023-05-10T00:30:12;5.90;;;2.65;;
13590;SDS011;6866;50.778;7.206;2023-05-10T00:32:38;5.45;;;2.47;;
13590;SDS011;6866;50.778;7.206;2023-05-10T00:35:04;5.78;;;2.50;;
13590;SDS011;6866;50.778;7.206;2023-05-10T00:37:29;7.72;;;2.92;;
13590;SDS011;6866;50.778;7.206;2023-05-10T00:39:55;6.55;;;2.53;;
13590;SDS011;6866;50.778;7.206;2023-05-10T00:42:21;5.32;;;2.65;;
13590;SDS011;6866;50.778;7.206;2023-05-10T00:44:47;4.72;;;2.50;;
13590;SDS011;6866;50.778;7.206;2023-05-10T00:47:13;5.43;;;2.45;;
13590;SDS011;6866;50.778;7.206;2023-05-10T00:49:38;4.93;;;2.88;;
13590;SDS011;6866;50.778;7.206;2023-05-10T00:52:05;6.75;;;2.63;;
13590;SDS011;6866;50.778;7.206;2023-05-10T00:54:31;3.20;;;2.05;;
13590;SDS011;6866;50.778;7.206;2023-05-10T00:56:56;4.80;;;2.42;;
13590;SDS011;6866;50.778;7.206;2023-05-10T00:59:22;7.88;;;3.05;;
13590;SDS011;6866;50.778;7.206;2023-05-10T01:04:23;6.70;;;3.72;;
13590;SDS011;6866;50.778;7.206;2023-05-10T01:06:50;6.38;;;2.78;;
13590;SDS011;6866;50.778;7.206;2023-05-10T01:09:17;5.32;;;3.08;;
13590;SDS011;6866;50.778;7.206;2023-05-10T01:11:43;5.72;;;3.15;;
13590;SDS011;6866;50.778;7.206;2023-05-10T01:14:09;8.20;;;4.13;;
13590;SDS011;6866;50.778;7.206;2023-05-10T01:16:36;5.10;;;3.45;;
13590;SDS011;6866;50.778;7.206;2023-05-10T01:19:04;6.18;;;3.70;;
13590;SDS011;6866;50.778;7.206;2023-05-10T01:27:44;5.20;;;3.60;;
13590;SDS011;6866;50.778;7.206;2023-05-10T01:36:03;6.72;;;3.22;;
13590;SDS011;6866;50.778;7.206;2023-05-10T01:41:33;6.22;;;3.47;;
13590;SDS011;6866;50.778;7.206;2023-05-10T01:47:05;8.52;;;2.60;;
13590;SDS011;6866;50.778;7.206;2023-05-10T01:49:52;5.28;;;2.40;;
13590;SDS011;6866;50.778;7.206;2023-05-10T01:52:22;4.85;;;2.88;;
13590;SDS011;6866;50.778;7.206;2023-05-10T01:57:20;5.90;;;2.75;;
13590;SDS011;6866;50.778;7.206;2023-05-10T01:59:50;3.28;;;1.95;;
13590;SDS011;6866;50.778;7.206;2023-05-10T02:02:17;4.57;;;2.45;;
13590;SDS011;6866;50.778;7.206;2023-05-10T02:04:45;4.90;;;2.30;;
13590;SDS011;6866;50.778;7.206;2023-05-10T02:07:12;6.85;;;2.42;;
13590;SDS011;6866;50.778;7.206;2023-05-10T02:09:40;6.53;;;2.80;;
13590;SDS011;6866;50.778;7.206;2023-05-10T02:12:09;5.85;;;2.50;;
13590;SDS011;6866;50.778;7.206;2023-05-10T02:14:36;5.55;;;2.17;;
13590;SDS011;6866;50.778;7.206;2023-05-10T02:17:02;4.38;;;2.38;;
13590;SDS011;6866;50.778;7.206;2023-05-10T02:19:30;6.15;;;2.63;;
13590;SDS011;6866;50.778;7.206;2023-05-10T02:21:57;4.13;;;2.03;;
13590;SDS011;6866;50.778;7.206;2023-05-10T02:24:24;5.93;;;2.78;;
13590;SDS011;6866;50.778;7.206;2023-05-10T02:26:51;5.15;;;2.60;;
13590;SDS011;6866;50.778;7.206;2023-05-10T02:29:19;4.93;;;2.20;;
13590;SDS011;6866;50.778;7.206;2023-05-10T02:31:45;4.25;;;2.35;;
13590;SDS011;6866;50.778;7.206;2023-05-10T02:34:12;5.20;;;2.60;;
13590;SDS011;6866;50.778;7.206;2023-05-10T02:36:38;7.00;;;3.03;;
13590;SDS011;6866;50.778;7.206;2023-05-10T02:39:05;6.35;;;2.67;;
13590;SDS011;6866;50.778;7.206;2023-05-10T02:41:34;5.65;;;2.47;;
13590;SDS011;6866;50.778;7.206;2023-05-10T02:44:01;4.30;;;2.30;;
13590;SDS011;6866;50.778;7.206;2023-05-10T02:46:28;6.80;;;2.20;;
13590;SDS011;6866;50.778;7.206;2023-05-10T02:48:54;4.82;;;2.00;;
13590;SDS011;6866;50.778;7.206;2023-05-10T02:51:20;4.82;;;1.95;;
13590;SDS011;6866;50.778;7.206;2023-05-10T02:53:52;4.45;;;2.28;;
13590;SDS011;6866;50.778;7.206;2023-05-10T02:56:22;5.00;;;2.10;;
13590;SDS011;6866;50.778;7.206;2023-05-10T02:58:50;3.90;;;2.00;;
13590;SDS011;6866;50.778;7.206;2023-05-10T03:01:17;5.75;;;2.50;;
13590;SDS011;6866;50.778;7.206;2023-05-10T03:03:42;4.82;;;2.35;;
13590;SDS011;6866;50.778;7.206;2023-05-10T03:06:08;5.13;;;2.22;;
13590;SDS011;6866;50.778;7.206;2023-05-10T03:08:34;4.50;;;2.15;;
13590;SDS011;6866;50.778;7.206;2023-05-10T03:11:14;4.22;;;2.25;;
13590;SDS011;6866;50.778;7.206;2023-05-10T03:16:42;6.65;;;2.38;;
13590;SDS011;6866;50.778;7.206;2023-05-10T03:19:30;5.82;;;2.55;;
13590;SDS011;6866;50.778;7.206;2023-05-10T03:22:03;5.90;;;2.78;;
13590;SDS011;6866;50.778;7.206;2023-05-10T03:24:33;5.63;;;3.22;;
13590;SDS011;6866;50.778;7.206;2023-05-10T03:27:00;5.75;;;3.22;;
13590;SDS011;6866;50.778;7.206;2023-05-10T03:29:27;4.82;;;3.10;;
13590;SDS011;6866;50.778;7.206;2023-05-10T03:31:54;6.00;;;3.40;;
13590;SDS011;6866;50.778;7.206;2023-05-10T03:34:23;4.68;;;3.22;;
13590;SDS011;6866;50.778;7.206;2023-05-10T03:36:49;5.28;;;3.38;;
13590;SDS011;6866;50.778;7.206;2023-05-10T03:39:15;5.10;;;3.50;;
13590;SDS011;6866;50.778;7.206;2023-05-10T03:41:40;5.82;;;3.50;;
13590;SDS011;6866;50.778;7.206;2023-05-10T03:44:06;5.97;;;3.63;;
13590;SDS011;6866;50.778;7.206;2023-05-10T03:46:31;8.32;;;3.85;;
13590;SDS011;6866;50.778;7.206;2023-05-10T03:48:57;7.15;;;3.65;;
13590;SDS011;6866;50.778;7.206;2023-05-10T03:51:23;6.28;;;3.92;;
13590;SDS011;6866;50.778;7.206;2023-05-10T03:53:52;8.55;;;4.13;;
13590;SDS011;6866;50.778;7.206;2023-05-10T03:56:21;7.30;;;4.35;;
13590;SDS011;6866;50.778;7.206;2023-05-10T03:58:47;9.70;;;4.68;;
13590;SDS011;6866;50.778;7.206;2023-05-10T04:01:12;8.68;;;4.88;;
13590;SDS011;6866;50.778;7.206;2023-05-10T04:03:38;10.27;;;5.63;;
13590;SDS011;6866;50.778;7.206;2023-05-10T04:06:04;10.80;;;5.07;;
13590;SDS011;6866;50.778;7.206;2023-05-10T04:08:30;9.23;;;5.82;;
13590;SDS011;6866;50.778;7.206;2023-05-10T04:11:08;10.80;;;6.20;;
13590;SDS011;6866;50.778;7.206;2023-05-10T04:13:35;11.45;;;6.22;;
13590;SDS011;6866;50.778;7.206;2023-05-10T04:16:01;11.57;;;6.47;;
13590;SDS011;6866;50.778;7.206;2023-05-10T04:18:27;13.68;;;7.63;;
13590;SDS011;6866;50.778;7.206;2023-05-10T04:20:53;11.30;;;6.45;;
13590;SDS011;6866;50.778;7.206;2023-05-10T04:23:18;10.05;;;6.70;;
13590;SDS011;6866;50.778;7.206;2023-05-10T04:25:44;11.27;;;7.60;;
13590;SDS011;6866;50.778;7.206;2023-05-10T04:28:09;11.75;;;7.20;;
13590;SDS011;6866;50.778;7.206;2023-05-10T04:30:35;12.30;;;7.22;;
13590;SDS011;6866;50.778;7.206;2023-05-10T04:33:01;12.43;;;7.50;;
13590;SDS011;6866;50.778;7.206;2023-05-10T04:35:29;12.27;;;7.80;;
13590;SDS011;6866;50.778;7.206;2023-05-10T04:37:55;13.40;;;8.05;;
13590;SDS011;6866;50.778;7.206;2023-05-10T04:40:20;14.52;;;8.30;;
13590;SDS011;6866;50.778;7.206;2023-05-10T04:42:46;13.20;;;7.90;;
13590;SDS011;6866;50.778;7.206;2023-05-10T04:45:11;15.00;;;8.85;;
13590;SDS011;6866;50.778;7.206;2023-05-10T04:47:39;12.55;;;8.45;;
13590;SDS011;6866;50.778;7.206;2023-05-10T04:50:05;14.45;;;8.55;;
13590;SDS011;6866;50.778;7.206;2023-05-10T04:52:31;17.38;;;8.35;;
13590;SDS011;6866;50.778;7.206;2023-05-10T04:54:56;15.00;;;8.55;;
13590;SDS011;6866;50.778;7.206;2023-05-10T04:57:22;14.15;;;8.52;;
13590;SDS011;6866;50.778;7.206;2023-05-10T04:59:48;13.13;;;8.45;;
13590;SDS011;6866;50.778;7.206;2023-05-10T05:02:13;15.90;;;9.35;;
13590;SDS011;6866;50.778;7.206;2023-05-10T05:04:39;20.15;;;9.55;;
13590;SDS011;6866;50.778;7.206;2023-05-10T05:07:04;13.98;;;9.02;;
13590;SDS011;6866;50.778;7.206;2023-05-10T05:09:30;17.45;;;10.63;;
13590;SDS011;6866;50.778;7.206;2023-05-10T05:11:56;19.58;;;10.38;;
13590;SDS011;6866;50.778;7.206;2023-05-10T05:14:22;17.63;;;11.68;;
13590;SDS011;6866;50.778;7.206;2023-05-10T05:16:50;20.75;;;12.57;;
13590;SDS011;6866;50.778;7.206;2023-05-10T05:19:16;19.35;;;12.70;;
13590;SDS011;6866;50.778;7.206;2023-05-10T05:21:41;18.73;;;12.43;;
13590;SDS011;6866;50.778;7.206;2023-05-10T05:24:07;19.25;;;12.23;;
13590;SDS011;6866;50.778;7.206;2023-05-10T05:26:32;20.08;;;13.40;;
13590;SDS011;6866;50.778;7.206;2023-05-10T05:28:58;24.05;;;14.45;;
13590;SDS011;6866;50.778;7.206;2023-05-10T05:31:24;22.52;;;14.55;;
13590;SDS011;6866;50.778;7.206;2023-05-10T05:33:49;23.27;;;14.90;;
13590;SDS011;6866;50.778;7.206;2023-05-10T05:36:15;22.83;;;15.43;;
13590;SDS011;6866;50.778;7.206;2023-05-10T05:38:41;21.85;;;15.25;;
13590;SDS011;6866;50.778;7.206;2023-05-10T05:41:07;23.75;;;16.65;;
13590;SDS011;6866;50.778;7.206;2023-05-10T05:43:33;24.67;;;15.43;;
13590;SDS011;6866;50.778;7.206;2023-05-10T05:45:59;24.50;;;15.93;;
13590;SDS011;6866;50.778;7.206;2023-05-10T05:48:24;23.58;;;15.68;;
13590;SDS011;6866;50.778;7.206;2023-05-10T05:50:50;28.80;;;16.88;;
13590;SDS011;6866;50.778;7.206;2023-05-10T05:53:18;22.52;;;15.55;;
13590;SDS011;6866;50.778;7.206;2023-05-10T05:55:54;23.25;;;15.48;;
13590;SDS011;6866;50.778;7.206;2023-05-10T05:58:21;26.73;;;15.77;;
13590;SDS011;6866;50.778;7.206;2023-05-10T06:00:47;25.15;;;14.90;;
13590;SDS011;6866;50.778;7.206;2023-05-10T06:03:13;24.73;;;15.35;;
13590;SDS011;6866;50.778;7.206;2023-05-10T06:05:38;23.40;;;15.43;;
13590;SDS011;6866;50.778;7.206;2023-05-10T06:08:04;23.48;;;14.77;;
13590;SDS011;6866;50.778;7.206;2023-05-10T06:10:30;24.85;;;16.05;;
13590;SDS011;6866;50.778;7.206;2023-05-10T06:12:55;22.80;;;15.30;;
13590;SDS011;6866;50.778;7.206;2023-05-10T06:15:21;22.60;;;15.00;;
13590;SDS011;6866;50.778;7.206;2023-05-10T06:17:46;23.40;;;14.57;;
13590;SDS011;6866;50.778;7.206;2023-05-10T06:20:14;24.45;;;16.45;;
13590;SDS011;6866;50.778;7.206;2023-05-10T06:22:40;22.50;;;16.00;;
13590;SDS011;6866;50.778;7.206;2023-05-10T06:25:06;23.02;;;15.40;;
13590;SDS011;6866;50.778;7.206;2023-05-10T06:27:32;24.77;;;15.98;;
13590;SDS011;6866;50.778;7.206;2023-05-10T06:29:58;27.15;;;16.52;;
13590;SDS011;6866;50.778;7.206;2023-05-10T06:32:23;24.88;;;16.10;;
13590;SDS011;6866;50.778;7.206;2023-05-10T06:34:49;24.48;;;15.88;;
13590;SDS011;6866;50.778;7.206;2023-05-10T06:37:15;25.73;;;16.10;;
13590;SDS011;6866;50.778;7.206;2023-05-10T06:39:40;23.45;;;15.45;;
13590;SDS011;6866;50.778;7.206;2023-05-10T06:42:06;23.38;;;15.50;;
13590;SDS011;6866;50.778;7.206;2023-05-10T06:44:31;22.95;;;14.75;;
13590;SDS011;6866;50.778;7.206;2023-05-10T06:46:57;25.48;;;14.75;;
13590;SDS011;6866;50.778;7.206;2023-05-10T06:49:23;21.67;;;14.13;;
13590;SDS011;6866;50.778;7.206;2023-05-10T06:51:48;23.50;;;14.13;;
13590;SDS011;6866;50.778;7.206;2023-05-10T06:54:14;22.05;;;14.85;;
13590;SDS011;6866;50.778;7.206;2023-05-10T06:56:39;22.38;;;15.50;;
13590;SDS011;6866;50.778;7.206;2023-05-10T06:59:05;22.27;;;13.73;;
13590;SDS011;6866;50.778;7.206;2023-05-10T07:01:30;19.85;;;13.50;;
13590;SDS011;6866;50.778;7.206;2023-05-10T07:03:56;15.63;;;11.73;;
13590;SDS011;6866;50.778;7.206;2023-05-10T07:06:21;18.25;;;10.95;;
13590;SDS011;6866;50.778;7.206;2023-05-10T07:08:47;16.77;;;10.15;;
13590;SDS011;6866;50.778;7.206;2023-05-10T07:11:12;15.95;;;8.65;;
13590;SDS011;6866;50.778;7.206;2023-05-10T07:13:39;13.35;;;8.45;;
13590;SDS011;6866;50.778;7.206;2023-05-10T07:16:08;12.02;;;8.05;;
13590;SDS011;6866;50.778;7.206;2023-05-10T07:18:35;14.15;;;6.20;;
13590;SDS011;6866;50.778;7.206;2023-05-10T07:21:01;12.48;;;6.88;;
13590;SDS011;6866;50.778;7.206;2023-05-10T07:23:27;14.05;;;6.50;;
13590;SDS011;6866;50.778;7.206;2023-05-10T07:25:52;10.07;;;6.43;;
13590;SDS011;6866;50.778;7.206;2023-05-10T07:28:18;11.63;;;6.07;;
13590;SDS011;6866;50.778;7.206;2023-05-10T07:30:44;10.60;;;5.85;;
13590;SDS011;6866;50.778;7.206;2023-05-10T07:33:10;10.38;;;6.13;;
13590;SDS011;6866;50.778;7.206;2023-05-10T07:35:37;10.48;;;5.63;;
13590;SDS011;6866;50.778;7.206;2023-05-10T07:38:02;11.48;;;7.18;;
13590;SDS011;6866;50.778;7.206;2023-05-10T07:40:28;11.43;;;5.78;;
13590;SDS011;6866;50.778;7.206;2023-05-10T07:42:54;9.43;;;4.90;;
13590;SDS011;6866;50.778;7.206;2023-05-10T07:45:20;10.10;;;4.70;;
13590;SDS011;6866;50.778;7.206;2023-05-10T07:47:45;8.85;;;4.60;;
13590;SDS011;6866;50.778;7.206;2023-05-10T07:50:11;9.48;;;5.05;;
13590;SDS011;6866;50.778;7.206;2023-05-10T07:52:36;9.40;;;5.20;;
13590;SDS011;6866;50.778;7.206;2023-05-10T07:55:02;9.32;;;5.25;;
13590;SDS011;6866;50.778;7.206;2023-05-10T07:57:27;10.52;;;4.85;;
13590;SDS011;6866;50.778;7.206;2023-05-10T07:59:53;8.88;;;4.90;;
13590;SDS011;6866;50.778;7.206;2023-05-10T08:02:18;9.18;;;5.28;;
13590;SDS011;6866;50.778;7.206;2023-05-10T08:04:44;8.48;;;5.03;;
13590;SDS011;6866;50.778;7.206;2023-05-10T08:07:10;8.95;;;4.70;;
13590;SDS011;6866;50.778;7.206;2023-05-10T08:09:36;7.93;;;4.95;;
13590;SDS011;6866;50.778;7.206;2023-05-10T08:12:01;7.95;;;4.25;;
13590;SDS011;6866;50.778;7.206;2023-05-10T08:14:28;7.88;;;4.63;;
13590;SDS011;6866;50.778;7.206;2023-05-10T08:16:54;6.38;;;4.05;;
13590;SDS011;6866;50.778;7.206;2023-05-10T08:19:20;7.07;;;4.55;;
13590;SDS011;6866;50.778;7.206;2023-05-10T08:21:46;9.38;;;4.88;;
13590;SDS011;6866;50.778;7.206;2023-05-10T08:24:12;11.48;;;5.13;;
13590;SDS011;6866;50.778;7.206;2023-05-10T08:26:37;7.78;;;4.70;;
13590;SDS011;6866;50.778;7.206;2023-05-10T08:29:03;10.05;;;5.40;;
13590;SDS011;6866;50.778;7.206;2023-05-10T08:31:28;11.07;;;6.03;;
13590;SDS011;6866;50.778;7.206;2023-05-10T08:33:54;10.02;;;5.22;;
13590;SDS011;6866;50.778;7.206;2023-05-10T08:36:20;11.00;;;5.75;;
13590;SDS011;6866;50.778;7.206;2023-05-10T08:38:53;9.77;;;5.55;;
13590;SDS011;6866;50.778;7.206;2023-05-10T08:41:20;9.95;;;5.25;;
13590;SDS011;6866;50.778;7.206;2023-05-10T08:43:46;13.25;;;6.00;;
13590;SDS011;6866;50.778;7.206;2023-05-10T08:46:15;8.38;;;5.38;;
13590;SDS011;6866;50.778;7.206;2023-05-10T08:48:43;9.13;;;5.55;;
13590;SDS011;6866;50.778;7.206;2023-05-10T08:51:13;9.02;;;5.20;;
13590;SDS011;6866;50.778;7.206;2023-05-10T08:53:41;10.35;;;4.97;;
13590;SDS011;6866;50.778;7.206;2023-05-10T08:56:07;10.68;;;4.85;;
13590;SDS011;6866;50.778;7.206;2023-05-10T08:58:33;9.00;;;4.43;;
13590;SDS011;6866;50.778;7.206;2023-05-10T09:00:59;8.63;;;4.45;;
13590;SDS011;6866;50.778;7.206;2023-05-10T09:03:25;8.65;;;4.32;;
13590;SDS011;6866;50.778;7.206;2023-05-10T09:05:51;9.43;;;4.35;;
13590;SDS011;6866;50.778;7.206;2023-05-10T09:08:17;9.63;;;4.38;;
13590;SDS011;6866;50.778;7.206;2023-05-10T09:10:43;9.85;;;4.45;;
13590;SDS011;6866;50.778;7.206;2023-05-10T09:13:12;8.52;;;4.50;;
13590;SDS011;6866;50.778;7.206;2023-05-10T09:15:40;8.37;;;5.10;;
13590;SDS011;6866;50.778;7.206;2023-05-10T09:18:06;8.60;;;4.28;;
13590;SDS011;6866;50.778;7.206;2023-05-10T09:20:31;9.65;;;4.30;;
13590;SDS011;6866;50.778;7.206;2023-05-10T09:22:57;6.60;;;4.00;;
13590;SDS011;6866;50.778;7.206;2023-05-10T09:25:23;9.13;;;3.88;;
13590;SDS011;6866;50.778;7.206;2023-05-10T09:27:48;5.72;;;3.00;;
13590;SDS011;6866;50.778;7.206;2023-05-10T09:30:17;6.97;;;2.15;;
13590;SDS011;6866;50.778;7.206;2023-05-10T09:32:55;5.18;;;2.22;;
13590;SDS011;6866;50.778;7.206;2023-05-10T09:35:26;5.07;;;2.30;;
13590;SDS011;6866;50.778;7.206;2023-05-10T09:37:54;5.18;;;2.20;;
13590;SDS011;6866;50.778;7.206;2023-05-10T09:40:21;4.68;;;2.15;;
13590;SDS011;6866;50.778;7.206;2023-05-10T09:45:27;3.33;;;1.50;;
13590;SDS011;6866;50.778;7.206;2023-05-10T09:47:54;3.58;;;1.70;;
13590;SDS011;6866;50.778;7.206;2023-05-10T09:50:20;3.25;;;1.42;;
13590;SDS011;6866;50.778;7.206;2023-05-10T09:55:13;5.07;;;1.50;;
13590;SDS011;6866;50.778;7.206;2023-05-10T09:57:39;2.40;;;1.27;;
13590;SDS011;6866;50.778;7.206;2023-05-10T10:00:05;4.82;;;1.50;;
13590;SDS011;6866;50.778;7.206;2023-05-10T10:02:32;3.72;;;1.48;;
13590;SDS011;6866;50.778;7.206;2023-05-10T10:04:58;3.42;;;1.35;;
13590;SDS011;6866;50.778;7.206;2023-05-10T10:07:28;5.10;;;1.97;;
13590;SDS011;6866;50.778;7.206;2023-05-10T10:09:54;2.50;;;1.38;;
13590;SDS011;6866;50.778;7.206;2023-05-10T10:12:20;3.22;;;1.63;;
13590;SDS011;6866;50.778;7.206;2023-05-10T10:14:46;3.15;;;1.80;;
13590;SDS011;6866;50.778;7.206;2023-05-10T10:17:13;4.05;;;1.65;;
13590;SDS011;6866;50.778;7.206;2023-05-10T10:19:38;4.60;;;1.90;;
13590;SDS011;6866;50.778;7.206;2023-05-10T10:22:05;3.35;;;1.70;;
13590;SDS011;6866;50.778;7.206;2023-05-10T10:24:31;6.68;;;2.67;;
13590;SDS011;6866;50.778;7.206;2023-05-10T10:26:58;4.53;;;2.63;;
13590;SDS011;6866;50.778;7.206;2023-05-10T10:29:39;5.82;;;3.40;;
13590;SDS011;6866;50.778;7.206;2023-05-10T10:34:59;6.18;;;3.58;;
13590;SDS011;6866;50.778;7.206;2023-05-10T10:37:40;6.20;;;4.03;;
13590;SDS011;6866;50.778;7.206;2023-05-10T10:40:23;6.60;;;4.40;;
13590;SDS011;6866;50.778;7.206;2023-05-10T10:42:50;8.77;;;5.43;;
13590;SDS011;6866;50.778;7.206;2023-05-10T10:45:16;10.45;;;6.20;;
13590;SDS011;6866;50.778;7.206;2023-05-10T10:47:41;11.55;;;6.55;;
13590;SDS011;6866;50.778;7.206;2023-05-10T10:50:08;13.65;;;6.78;;
13590;SDS011;6866;50.778;7.206;2023-05-10T10:52:42;11.48;;;6.75;;
13590;SDS011;6866;50.778;7.206;2023-05-10T10:55:09;11.07;;;7.00;;
13590;SDS011;6866;50.778;7.206;2023-05-10T10:57:43;10.57;;;7.55;;
13590;SDS011;6866;50.778;7.206;2023-05-10T11:05:34;11.45;;;7.32;;
13590;SDS011;6866;50.778;7.206;2023-05-10T11:08:08;11.77;;;7.32;;
13590;SDS011;6866;50.778;7.206;2023-05-10T11:15:54;10.93;;;6.28;;
13590;SDS011;6866;50.778;7.206;2023-05-10T11:18:26;11.02;;;6.03;;
13590;SDS011;6866;50.778;7.206;2023-05-10T11:23:23;8.32;;;5.32;;
13590;SDS011;6866;50.778;7.206;2023-05-10T11:25:54;8.55;;;5.20;;
13590;SDS011;6866;50.778;7.206;2023-05-10T11:30:45;9.55;;;5.20;;
13590;SDS011;6866;50.778;7.206;2023-05-10T11:33:15;12.35;;;4.78;;
13590;SDS011;6866;50.778;7.206;2023-05-10T11:35:41;9.60;;;5.60;;
13590;SDS011;6866;50.778;7.206;2023-05-10T11:38:08;6.95;;;4.00;;
13590;SDS011;6866;50.778;7.206;2023-05-10T11:40:34;5.45;;;3.20;;
13590;SDS011;6866;50.778;7.206;2023-05-10T11:43:01;5.45;;;3.00;;
13590;SDS011;6866;50.778;7.206;2023-05-10T11:45:27;6.43;;;3.08;;
13590;SDS011;6866;50.778;7.206;2023-05-10T11:47:54;5.50;;;3.10;;
13590;SDS011;6866;50.778;7.206;2023-05-10T11:50:20;6.18;;;2.20;;
13590;SDS011;6866;50.778;7.206;2023-05-10T11:52:50;3.53;;;2.10;;
13590;SDS011;6866;50.778;7.206;2023-05-10T11:55:17;7.50;;;2.10;;
13590;SDS011;6866;50.778;7.206;2023-05-10T11:57:42;5.07;;;1.85;;
13590;SDS011;6866;50.778;7.206;2023-05-10T12:00:11;3.42;;;1.88;;
13590;SDS011;6866;50.778;7.206;2023-05-10T12:02:37;3.13;;;1.83;;
13590;SDS011;6866;50.778;7.206;2023-05-10T12:05:03;2.50;;;1.60;;
13590;SDS011;6866;50.778;7.206;2023-05-10T12:07:30;2.67;;;1.63;;
13590;SDS011;6866;50.778;7.206;2023-05-10T12:10:05;3.45;;;1.70;;
13590;SDS011;6866;50.778;7.206;2023-05-10T12:12:38;3.88;;;1.92;;
13590;SDS011;6866;50.778;7.206;2023-05-10T12:15:06;3.85;;;1.75;;
13590;SDS011;6866;50.778;7.206;2023-05-10T12:17:37;2.47;;;1.25;;
13590;SDS011;6866;50.778;7.206;2023-05-10T12:20:17;3.85;;;1.40;;
13590;SDS011;6866;50.778;7.206;2023-05-10T12:22:54;3.60;;;1.65;;
13590;SDS011;6866;50.778;7.206;2023-05-10T12:25:22;3.72;;;1.67;;
13590;SDS011;6866;50.778;7.206;2023-05-10T12:27:53;3.38;;;1.98;;
13590;SDS011;6866;50.778;7.206;2023-05-10T12:30:21;4.80;;;1.77;;
13590;SDS011;6866;50.778;7.206;2023-05-10T12:32:50;5.63;;;1.80;;
13590;SDS011;6866;50.778;7.206;2023-05-10T12:35:16;4.07;;;2.20;;
13590;SDS011;6866;50.778;7.206;2023-05-10T12:37:46;3.72;;;1.90;;
13590;SDS011;6866;50.778;7.206;2023-05-10T12:40:12;4.38;;;1.90;;
13590;SDS011;6866;50.778;7.206;2023-05-10T12:42:38;3.53;;;1.50;;
13590;SDS011;6866;50.778;7.206;2023-05-10T12:45:05;5.22;;;1.92;;
13590;SDS011;6866;50.778;7.206;2023-05-10T12:47:31;3.45;;;1.30;;
13590;SDS011;6866;50.778;7.206;2023-05-10T12:50:00;2.63;;;1.40;;
13590;SDS011;6866;50.778;7.206;2023-05-10T12:52:26;2.85;;;1.25;;
13590;SDS011;6866;50.778;7.206;2023-05-10T12:54:52;3.25;;;1.20;;
13590;SDS011;6866;50.778;7.206;2023-05-10T12:57:20;3.22;;;1.42;;
13590;SDS011;6866;50.778;7.206;2023-05-10T12:59:46;3.05;;;1.50;;
13590;SDS011;6866;50.778;7.206;2023-05-10T13:02:12;3.13;;;1.35;;
13590;SDS011;6866;50.778;7.206;2023-05-10T13:04:38;3.28;;;1.50;;
13590;SDS011;6866;50.778;7.206;2023-05-10T13:07:05;3.75;;;1.55;;
13590;SDS011;6866;50.778;7.206;2023-05-10T13:09:31;4.30;;;1.60;;
13590;SDS011;6866;50.778;7.206;2023-05-10T13:11:57;2.53;;;1.50;;
13590;SDS011;6866;50.778;7.206;2023-05-10T13:14:22;2.95;;;1.50;;
13590;SDS011;6866;50.778;7.206;2023-05-10T13:16:48;2.97;;;1.50;;
13590;SDS011;6866;50.778;7.206;2023-05-10T13:19:13;4.53;;;1.90;;
13590;SDS011;6866;50.778;7.206;2023-05-10T13:21:40;3.40;;;1.90;;
13590;SDS011;6866;50.778;7.206;2023-05-10T13:24:06;6.00;;;1.80;;
13590;SDS011;6866;50.778;7.206;2023-05-10T13:26:32;4.07;;;1.90;;
13590;SDS011;6866;50.778;7.206;2023-05-10T13:28:57;3.78;;;2.00;;
13590;SDS011;6866;50.778;7.206;2023-05-10T13:31:23;6.93;;;2.40;;
13590;SDS011;6866;50.778;7.206;2023-05-10T13:33:48;5.15;;;2.20;;
13590;SDS011;6866;50.778;7.206;2023-05-10T13:36:14;5.47;;;2.40;;
13590;SDS011;6866;50.778;7.206;2023-05-10T13:38:39;3.75;;;1.80;;
13590;SDS011;6866;50.778;7.206;2023-05-10T13:41:05;2.58;;;1.40;;
13590;SDS011;6866;50.778;7.206;2023-05-10T13:43:30;2.92;;;1.50;;
13590;SDS011;6866;50.778;7.206;2023-05-10T13:45:56;3.88;;;1.50;;
13590;SDS011;6866;50.778;7.206;2023-05-10T13:48:22;4.70;;;1.65;;
13590;SDS011;6866;50.778;7.206;2023-05-10T13:50:47;5.93;;;4.03;;
13590;SDS011;6866;50.778;7.206;2023-05-10T13:53:13;5.55;;;3.60;;
13590;SDS011;6866;50.778;7.206;2023-05-10T13:55:39;2.90;;;1.80;;
13590;SDS011;6866;50.778;7.206;2023-05-10T13:58:04;4.40;;;1.77;;
13590;SDS011;6866;50.778;7.206;2023-05-10T14:00:30;3.65;;;2.00;;
13590;SDS011;6866;50.778;7.206;2023-05-10T14:02:56;4.70;;;2.15;;
13590;SDS011;6866;50.778;7.206;2023-05-10T14:05:21;5.40;;;2.30;;
13590;SDS011;6866;50.778;7.206;2023-05-10T14:07:48;3.53;;;1.95;;
13590;SDS011;6866;50.778;7.206;2023-05-10T14:10:15;4.47;;;2.22;;
13590;SDS011;6866;50.778;7.206;2023-05-10T14:12:40;5.15;;;2.70;;
13590;SDS011;6866;50.778;7.206;2023-05-10T14:15:06;5.82;;;2.92;;
13590;SDS011;6866;50.778;7.206;2023-05-10T14:17:32;3.80;;;2.13;;
13590;SDS011;6866;50.778;7.206;2023-05-10T14:19:58;4.93;;;2.38;;
13590;SDS011;6866;50.778;7.206;2023-05-10T14:22:23;4.85;;;2.97;;
13590;SDS011;6866;50.778;7.206;2023-05-10T14:24:49;5.18;;;2.90;;
13590;SDS011;6866;50.778;7.206;2023-05-10T14:27:15;4.88;;;2.60;;
13590;SDS011;6866;50.778;7.206;2023-05-10T14:29:41;5.13;;;2.60;;
13590;SDS011;6866;50.778;7.206;2023-05-10T14:32:07;5.72;;;2.75;;
13590;SDS011;6866;50.778;7.206;2023-05-10T14:34:32;5.03;;;3.00;;
13590;SDS011;6866;50.778;7.206;2023-05-10T14:36:58;5.55;;;2.88;;
13590;SDS011;6866;50.778;7.206;2023-05-10T14:39:23;7.72;;;3.40;;
13590;SDS011;6866;50.778;7.206;2023-05-10T14:41:49;5.25;;;3.80;;
13590;SDS011;6866;50.778;7.206;2023-05-10T14:44:16;7.10;;;3.45;;
13590;SDS011;6866;50.778;7.206;2023-05-10T14:46:41;6.88;;;3.20;;
13590;SDS011;6866;50.778;7.206;2023-05-10T14:49:07;4.72;;;2.42;;
13590;SDS011;6866;50.778;7.206;2023-05-10T14:51:33;4.93;;;2.50;;
13590;SDS011;6866;50.778;7.206;2023-05-10T14:53:58;3.25;;;2.10;;
13590;SDS011;6866;50.778;7.206;2023-05-10T14:56:24;4.30;;;1.90;;
13590;SDS011;6866;50.778;7.206;2023-05-10T14:58:51;4.32;;;2.00;;
13590;SDS011;6866;50.778;7.206;2023-05-10T15:01:16;4.70;;;1.92;;
13590;SDS011;6866;50.778;7.206;2023-05-10T15:03:42;3.33;;;1.83;;
13590;SDS011;6866;50.778;7.206;2023-05-10T15:06:08;3.90;;;1.80;;
13590;SDS011;6866;50.778;7.206;2023-05-10T15:08:33;4.30;;;1.85;;
13590;SDS011;6866;50.778;7.206;2023-05-10T15:10:59;4.82;;;1.75;;
13590;SDS011;6866;50.778;7.206;2023-05-10T15:13:24;7.57;;;2.15;;
13590;SDS011;6866;50.778;7.206;2023-05-10T15:15:50;3.25;;;1.80;;
13590;SDS011;6866;50.778;7.206;2023-05-10T15:18:16;3.83;;;1.70;;
13590;SDS011;6866;50.778;7.206;2023-05-10T15:20:41;5.88;;;1.60;;
13590;SDS011;6866;50.778;7.206;2023-05-10T15:23:07;4.20;;;1.40;;
13590;SDS011;6866;50.778;7.206;2023-05-10T15:25:32;2.40;;;1.20;;
13590;SDS011;6866;50.778;7.206;2023-05-10T15:28:02;2.38;;;1.10;;
13590;SDS011;6866;50.778;7.206;2023-05-10T15:30:29;3.67;;;1.45;;
13590;SDS011;6866;50.778;7.206;2023-05-10T15:32:54;3.42;;;1.48;;
13590;SDS011;6866;50.778;7.206;2023-05-10T15:35:20;2.95;;;1.50;;
13590;SDS011;6866;50.778;7.206;2023-05-10T15:37:47;5.93;;;1.50;;
13590;SDS011;6866;50.778;7.206;2023-05-10T15:40:12;4.55;;;1.30;;
13590;SDS011;6866;50.778;7.206;2023-05-10T15:42:38;2.60;;;1.40;;